createdAt,value
2019-05-07T00:01:19.839Z,7.10
2019-05-07T00:03:49.120Z,7.10
2019-05-07T00:06:18.463Z,7.20
2019-05-07T00:08:47.769Z,7.20
2019-05-07T00:11:17.301Z,7.10
2019-05-07T00:13:46.638Z,7.10
2019-05-07T00:16:16.039Z,7.10
2019-05-07T00:18:45.375Z,7.10
2019-05-07T00:21:14.745Z,7.10
2019-05-07T00:23:44.092Z,7.10
2019-05-07T00:26:13.477Z,7.10
2019-05-07T00:28:43.528Z,7.10
2019-05-07T00:31:13.234Z,7.10
2019-05-07T00:33:43.293Z,7.00
2019-05-07T00:36:34.909Z,7.00
2019-05-07T00:39:28.727Z,7.00
2019-05-07T00:42:09.218Z,7.00
2019-05-07T00:44:56.377Z,6.90
2019-05-07T00:47:25.801Z,6.90
2019-05-07T00:49:56.729Z,6.80
2019-05-07T00:52:26.066Z,6.80
2019-05-07T00:54:55.390Z,6.70
2019-05-07T00:57:24.809Z,6.70
2019-05-07T00:59:54.118Z,6.70
2019-05-07T01:02:23.801Z,6.60
2019-05-07T01:04:53.362Z,6.60
2019-05-07T01:07:23.096Z,6.50
2019-05-07T01:09:52.672Z,6.50
2019-05-07T01:12:22.361Z,6.40
2019-05-07T01:14:52.850Z,6.40
2019-05-07T01:17:22.812Z,6.30
2019-05-07T01:19:53.252Z,6.30
2019-05-07T01:22:22.994Z,6.20
2019-05-07T01:24:53.589Z,6.20
2019-05-07T01:27:22.969Z,6.10
2019-05-07T01:29:52.885Z,6.10
2019-05-07T01:32:28.275Z,6.00
2019-05-07T01:35:04.935Z,6.00
2019-05-07T01:37:34.272Z,5.90
2019-05-07T01:40:03.689Z,5.80
2019-05-07T01:42:36.260Z,5.80
2019-05-07T01:45:04.748Z,5.70
2019-05-07T01:47:34.149Z,5.70
2019-05-07T01:50:03.554Z,5.60
2019-05-07T01:52:33.276Z,5.60
2019-05-07T01:55:03.342Z,5.60
2019-05-07T01:57:32.945Z,5.50
2019-05-07T02:02:47.635Z,5.40
2019-05-07T02:05:38.663Z,5.40
2019-05-07T02:08:12.437Z,5.30
2019-05-07T02:10:46.129Z,5.30
2019-05-07T02:13:15.541Z,5.30
2019-05-07T02:15:57.354Z,5.20
2019-05-07T02:18:15.911Z,5.20
2019-05-07T02:20:45.378Z,5.20
2019-05-07T02:23:14.785Z,5.20
2019-05-07T02:25:44.121Z,5.10
2019-05-07T02:28:13.439Z,5.10
2019-05-07T02:30:44.380Z,5.10
2019-05-07T02:33:14.127Z,5.00
2019-05-07T02:35:44.101Z,5.00
2019-05-07T02:38:22.998Z,5.00
2019-05-07T02:40:57.100Z,4.90
2019-05-07T02:43:26.412Z,4.90
2019-05-07T02:46:25.682Z,4.90
2019-05-07T02:49:03.377Z,4.90
2019-05-07T02:51:38.722Z,4.80
2019-05-07T02:54:17.859Z,4.80
2019-05-07T02:56:47.242Z,4.80
2019-05-07T02:59:16.569Z,4.70
2019-05-07T03:01:45.973Z,4.70
2019-05-07T03:04:15.381Z,4.70
2019-05-07T03:06:44.857Z,4.70
2019-05-07T03:09:14.763Z,4.70
2019-05-07T03:11:44.333Z,4.70
2019-05-07T03:14:14.254Z,4.60
2019-05-07T03:16:48.949Z,4.60
2019-05-07T03:19:15.130Z,4.50
2019-05-07T03:21:54.327Z,4.40
2019-05-07T03:24:43.591Z,4.40
2019-05-07T03:27:14.349Z,4.30
2019-05-07T03:29:47.958Z,4.30
2019-05-07T03:32:37.773Z,4.20
2019-05-07T03:35:27.208Z,4.20
2019-05-07T03:37:54.810Z,4.10
2019-05-07T03:40:24.228Z,4.10
2019-05-07T03:42:53.766Z,4.10
2019-05-07T03:45:43.245Z,4.00
2019-05-07T03:48:14.303Z,4.00
2019-05-07T03:50:43.722Z,3.90
2019-05-07T03:53:14.196Z,3.90
2019-05-07T03:55:44.789Z,3.90
2019-05-07T03:58:14.857Z,3.90
2019-05-07T04:00:45.061Z,3.90
2019-05-07T04:03:18.940Z,3.80
2019-05-07T04:05:45.486Z,3.90
2019-05-07T04:08:14.931Z,3.80
2019-05-07T04:10:44.646Z,3.80
2019-05-07T04:13:14.318Z,3.90
2019-05-07T04:15:44.257Z,3.80
2019-05-07T04:18:13.898Z,3.90
2019-05-07T04:20:44.825Z,3.90
2019-05-07T04:23:14.317Z,3.90
2019-05-07T04:26:04.398Z,3.90
2019-05-07T04:28:55.968Z,4.00
2019-05-07T04:31:27.228Z,4.00
2019-05-07T04:33:58.777Z,4.00
2019-05-07T04:36:33.723Z,4.10
2019-05-07T04:39:03.293Z,4.10
2019-05-07T04:41:33.155Z,4.20
2019-05-07T04:44:03.982Z,4.20
2019-05-07T04:46:33.893Z,4.30
2019-05-07T04:49:03.986Z,4.40
2019-05-07T04:51:58.567Z,4.50
2019-05-07T04:54:27.890Z,4.70
2019-05-07T04:56:57.232Z,4.90
2019-05-07T04:59:26.647Z,5.10
2019-05-07T05:02:04.081Z,5.30
2019-05-07T05:04:34.959Z,5.40
2019-05-07T05:07:04.516Z,5.70
2019-05-07T05:09:33.908Z,5.80
2019-05-07T05:12:03.329Z,5.90
2019-05-07T05:14:33.776Z,6.00
2019-05-07T05:17:07.218Z,6.10
2019-05-07T05:19:36.593Z,6.30
2019-05-07T05:22:43.047Z,6.40
2019-05-07T05:25:26.389Z,6.40
2019-05-07T05:27:55.811Z,6.50
2019-05-07T05:30:47.203Z,6.50
2019-05-07T05:33:16.614Z,6.50
2019-05-07T05:35:45.982Z,6.50
2019-05-07T05:38:15.386Z,6.50
2019-05-07T05:40:44.774Z,6.50
2019-05-07T05:43:22.363Z,6.50
2019-05-07T05:45:53.104Z,6.50
2019-05-07T05:48:22.946Z,6.50
2019-05-07T05:51:02.883Z,6.50
2019-05-07T05:53:43.303Z,6.60
2019-05-07T05:56:20.126Z,6.60
2019-05-07T05:59:07.151Z,6.60
2019-05-07T06:01:47.020Z,6.60
2019-05-07T06:04:24.556Z,6.60
2019-05-07T06:07:08.813Z,6.60
2019-05-07T06:10:02.543Z,6.60
2019-05-07T06:13:01.625Z,6.60
2019-05-07T06:15:48.494Z,6.70
2019-05-07T06:18:35.323Z,6.70
2019-05-07T06:21:24.566Z,6.70
2019-05-07T06:23:56.899Z,6.80
2019-05-07T06:26:26.217Z,7.00
2019-05-07T06:28:55.673Z,7.10
2019-05-07T06:31:25.023Z,7.30
2019-05-07T06:33:54.356Z,7.50
2019-05-07T06:36:23.789Z,7.60
2019-05-07T06:39:02.135Z,7.80
2019-05-07T06:41:49.177Z,8.00
2019-05-07T06:44:22.398Z,8.10
2019-05-07T06:46:52.619Z,8.30
2019-05-07T06:49:22.452Z,8.40
2019-05-07T06:51:52.862Z,8.60
2019-05-07T06:54:22.686Z,8.70
2019-05-07T06:56:52.490Z,8.90
2019-05-07T06:59:34.310Z,9.00
2019-05-07T07:02:22.516Z,9.10
2019-05-07T07:05:13.333Z,9.20
2019-05-07T07:07:55.842Z,9.40
2019-05-07T07:10:52.149Z,9.50
2019-05-07T07:13:22.960Z,9.50
2019-05-07T07:15:52.353Z,9.60
2019-05-07T07:18:23.080Z,9.70
2019-05-07T07:20:52.591Z,9.90
2019-05-07T07:23:22.634Z,10.00
2019-05-07T07:25:52.402Z,10.10
2019-05-07T07:28:22.028Z,10.20
2019-05-07T07:31:18.199Z,10.30
2019-05-07T07:33:47.938Z,10.40
2019-05-07T07:36:17.906Z,10.50
2019-05-07T07:38:47.291Z,10.60
2019-05-07T07:41:32.767Z,10.60
2019-05-07T07:44:02.238Z,10.70
2019-05-07T07:46:33.040Z,10.90
2019-05-07T07:49:10.628Z,11.00
2019-05-07T07:51:41.087Z,11.10
2019-05-07T07:54:05.108Z,11.00
2019-05-07T07:56:56.745Z,11.00
2019-05-07T07:59:47.964Z,11.10
2019-05-07T08:02:39.305Z,11.30
2019-05-07T08:05:09.015Z,11.50
2019-05-07T08:07:38.366Z,11.70
2019-05-07T08:10:08.149Z,11.70
2019-05-07T08:12:37.489Z,11.90
2019-05-07T08:15:16.741Z,12.10
2019-05-07T08:17:39.076Z,12.20
2019-05-07T08:20:10.145Z,12.10
2019-05-07T08:22:39.482Z,12.10
2019-05-07T08:25:09.011Z,12.20
2019-05-07T08:27:38.384Z,12.20
2019-05-07T08:30:09.404Z,12.10
2019-05-07T08:32:55.486Z,12.30
2019-05-07T08:35:34.575Z,12.30
2019-05-07T08:38:03.956Z,12.40
2019-05-07T08:40:33.308Z,12.40
2019-05-07T08:43:03.397Z,12.30
2019-05-07T08:45:52.435Z,12.60
2019-05-07T08:48:32.766Z,12.60
2019-05-07T08:51:02.581Z,12.80
2019-05-07T08:53:32.779Z,13.00
2019-05-07T08:56:03.315Z,12.80
2019-05-07T08:58:32.896Z,12.80
2019-05-07T09:01:03.056Z,12.80
2019-05-07T09:03:44.922Z,12.80
2019-05-07T09:06:17.144Z,13.00
2019-05-07T09:08:46.564Z,13.30
2019-05-07T09:11:15.911Z,13.40
2019-05-07T09:13:45.278Z,13.20
2019-05-07T09:16:14.637Z,13.00
2019-05-07T09:18:44.022Z,13.00
2019-05-07T09:21:13.378Z,13.10
2019-05-07T09:23:42.762Z,13.30
2019-05-07T09:26:13.974Z,13.40
2019-05-07T09:29:02.624Z,13.40
2019-05-07T09:31:53.995Z,13.50
2019-05-07T09:34:24.414Z,13.50
2019-05-07T09:36:55.330Z,13.60
2019-05-07T09:39:24.718Z,13.50
2019-05-07T09:41:54.144Z,13.30
2019-05-07T09:44:23.569Z,13.40
2019-05-07T09:46:53.367Z,13.30
2019-05-07T09:49:22.746Z,13.20
2019-05-07T09:51:52.131Z,13.50
2019-05-07T09:54:23.100Z,13.80
2019-05-07T09:56:52.687Z,13.80
2019-05-07T09:59:22.135Z,14.30
2019-05-07T10:01:51.890Z,14.40
2019-05-07T10:04:22.426Z,14.40
2019-05-07T10:06:52.018Z,14.00
2019-05-07T10:09:22.340Z,14.10
2019-05-07T10:12:12.177Z,14.00
2019-05-07T10:14:42.081Z,14.00
2019-05-07T10:17:17.459Z,13.90
2019-05-07T10:19:47.682Z,13.70
2019-05-07T10:22:17.023Z,13.70
2019-05-07T10:24:46.360Z,13.60
2019-05-07T10:27:15.814Z,13.30
2019-05-07T10:29:45.315Z,13.10
2019-05-07T10:32:14.666Z,13.00
2019-05-07T10:34:44.204Z,13.00
2019-05-07T10:37:13.735Z,12.80
2019-05-07T10:39:43.138Z,12.80
2019-05-07T10:42:12.554Z,12.80
2019-05-07T10:44:48.267Z,12.90
2019-05-07T10:47:35.630Z,13.00
2019-05-07T10:50:35.557Z,13.10
2019-05-07T10:52:55.463Z,13.40
2019-05-07T10:55:24.855Z,13.50
2019-05-07T10:57:54.306Z,13.60
2019-05-07T11:00:25.609Z,13.50
2019-05-07T11:02:55.080Z,13.30
2019-05-07T11:05:24.467Z,13.40
2019-05-07T11:07:54.003Z,13.60
2019-05-07T11:10:23.615Z,13.90
2019-05-07T11:12:53.020Z,14.20
2019-05-07T11:15:22.372Z,14.40
2019-05-07T11:18:02.788Z,14.40
2019-05-07T11:20:49.282Z,14.50
2019-05-07T11:23:12.069Z,14.40
2019-05-07T11:25:42.068Z,14.30
2019-05-07T11:28:12.390Z,14.40
2019-05-07T11:30:42.648Z,14.40
2019-05-07T11:33:12.878Z,14.40
2019-05-07T11:35:42.543Z,14.40
2019-05-07T11:38:20.793Z,14.40
2019-05-07T11:40:43.032Z,14.40
2019-05-07T11:43:43.745Z,14.60
2019-05-07T11:46:22.092Z,14.60
2019-05-07T11:49:05.778Z,14.60
2019-05-07T11:51:54.098Z,14.50
2019-05-07T11:54:23.418Z,14.40
2019-05-07T11:56:55.369Z,14.30
2019-05-07T11:59:23.908Z,14.00
2019-05-07T12:01:58.282Z,13.90
2019-05-07T12:04:28.061Z,14.10
2019-05-07T12:06:57.650Z,14.40
2019-05-07T12:09:27.711Z,14.70
2019-05-07T12:11:57.633Z,14.90
2019-05-07T12:14:31.776Z,14.90
2019-05-07T12:16:58.059Z,14.80
2019-05-07T12:19:27.458Z,14.80
2019-05-07T12:21:56.858Z,14.40
2019-05-07T12:24:26.251Z,14.00
2019-05-07T12:26:55.624Z,14.10
2019-05-07T12:29:24.966Z,14.00
2019-05-07T12:32:19.574Z,14.00
2019-05-07T12:34:52.778Z,14.00
2019-05-07T12:37:22.575Z,14.00
2019-05-07T12:39:52.747Z,13.90
2019-05-07T12:42:22.425Z,13.80
2019-05-07T12:44:51.872Z,13.80
2019-05-07T12:47:22.513Z,14.10
2019-05-07T12:49:52.225Z,14.30
2019-05-07T12:52:49.509Z,14.40
2019-05-07T12:55:26.489Z,14.50
2019-05-07T12:57:55.822Z,14.70
2019-05-07T13:00:43.310Z,15.00
2019-05-07T13:03:21.825Z,15.30
2019-05-07T13:05:52.115Z,15.50
2019-05-07T13:08:22.969Z,15.40
2019-05-07T13:10:52.650Z,15.20
2019-05-07T13:13:21.962Z,15.00
2019-05-07T13:15:51.814Z,14.90
2019-05-07T13:18:22.643Z,14.60
2019-05-07T13:20:52.197Z,14.60
2019-05-07T13:23:22.513Z,14.50
2019-05-07T13:25:52.475Z,14.20
2019-05-07T13:28:21.774Z,14.30
2019-05-07T13:30:52.614Z,14.20
2019-05-07T13:33:22.883Z,14.00
2019-05-07T13:35:52.826Z,14.10
2019-05-07T13:38:37.315Z,14.00
2019-05-07T13:41:31.546Z,13.90
2019-05-07T13:44:14.514Z,13.80
2019-05-07T13:46:44.990Z,14.00
2019-05-07T13:49:14.702Z,14.20
2019-05-07T13:51:44.104Z,14.30
2019-05-07T13:54:13.491Z,14.40
2019-05-07T13:56:42.890Z,14.30
2019-05-07T13:59:13.216Z,14.20
2019-05-07T14:01:48.603Z,14.10
2019-05-07T14:04:17.935Z,13.90
2019-05-07T14:06:47.274Z,13.90
2019-05-07T14:09:24.228Z,13.90
2019-05-07T14:11:53.061Z,13.90
2019-05-07T14:14:22.803Z,13.80
2019-05-07T14:16:53.027Z,13.60
2019-05-07T14:19:22.767Z,13.70
2019-05-07T14:21:52.541Z,13.70
2019-05-07T14:24:22.575Z,13.70
2019-05-07T14:26:52.937Z,13.70
2019-05-07T14:29:24.684Z,13.50
2019-05-07T14:32:21.866Z,13.50
2019-05-07T14:35:22.683Z,13.60
2019-05-07T14:37:56.508Z,13.80
2019-05-07T14:40:25.843Z,14.10
2019-05-07T14:43:06.945Z,14.20
2019-05-07T14:45:36.435Z,14.40
2019-05-07T14:48:05.838Z,14.50
2019-05-07T14:50:35.167Z,14.60
2019-05-07T14:53:04.565Z,14.70
2019-05-07T14:55:33.942Z,14.80
2019-05-07T14:58:03.403Z,14.70
2019-05-07T15:00:35.165Z,14.80
2019-05-07T15:03:04.091Z,14.80
2019-05-07T15:05:33.489Z,14.70
2019-05-07T15:08:10.779Z,14.90
2019-05-07T15:10:34.007Z,14.60
2019-05-07T15:13:03.521Z,14.60
2019-05-07T15:15:32.935Z,14.50
2019-05-07T15:18:12.543Z,14.50
2019-05-07T15:20:43.354Z,14.50
2019-05-07T15:23:26.464Z,14.30
2019-05-07T15:25:56.184Z,14.30
2019-05-07T15:28:25.606Z,14.20
2019-05-07T15:31:14.083Z,14.20
2019-05-07T15:33:43.462Z,14.20
2019-05-07T15:36:12.809Z,14.20
2019-05-07T15:38:42.957Z,14.20
2019-05-07T15:41:12.453Z,14.20
2019-05-07T15:43:45.839Z,14.20
2019-05-07T15:46:12.933Z,14.20
2019-05-07T15:48:42.321Z,14.10
2019-05-07T15:51:11.968Z,14.00
2019-05-07T15:53:48.752Z,13.80
2019-05-07T15:56:18.154Z,13.80
2019-05-07T15:58:47.583Z,13.80
2019-05-07T16:01:16.928Z,13.70
2019-05-07T16:03:46.750Z,13.70
2019-05-07T16:06:16.182Z,13.70
2019-05-07T16:08:49.959Z,13.70
2019-05-07T16:11:19.350Z,13.60
2019-05-07T16:14:06.263Z,13.60
2019-05-07T16:16:37.281Z,13.50
2019-05-07T16:19:12.505Z,13.50
2019-05-07T16:21:42.529Z,13.40
2019-05-07T16:24:12.277Z,13.40
2019-05-07T16:26:42.041Z,13.40
2019-05-07T16:29:13.309Z,13.30
2019-05-07T16:31:44.167Z,13.30
2019-05-07T16:34:13.837Z,13.30
2019-05-07T16:36:43.459Z,13.30
2019-05-07T16:39:12.900Z,13.20
2019-05-07T16:41:42.508Z,13.10
2019-05-07T16:44:12.419Z,13.10
2019-05-07T16:46:42.326Z,13.10
2019-05-07T16:49:12.196Z,13.00
2019-05-07T16:51:44.582Z,12.90
2019-05-07T16:54:14.661Z,12.90
2019-05-07T16:57:03.229Z,12.80
2019-05-07T16:59:32.653Z,12.70
2019-05-07T17:02:06.218Z,12.70
2019-05-07T17:04:36.139Z,12.60
2019-05-07T17:07:08.716Z,12.50
2019-05-07T17:09:38.190Z,12.40
2019-05-07T17:12:09.358Z,12.30
2019-05-07T17:14:38.706Z,12.30
2019-05-07T17:17:08.090Z,12.20
2019-05-07T17:19:37.527Z,12.10
2019-05-07T17:22:06.878Z,12.00
2019-05-07T17:24:36.222Z,11.90
2019-05-07T17:27:05.550Z,11.80
2019-05-07T17:29:34.897Z,11.80
2019-05-07T17:32:04.238Z,11.80
2019-05-07T17:34:33.642Z,11.70
2019-05-07T17:37:02.974Z,11.60
2019-05-07T17:39:32.340Z,11.60
2019-05-07T17:42:02.491Z,11.50
2019-05-07T17:44:32.521Z,11.40
2019-05-07T17:47:02.169Z,11.40
2019-05-07T17:49:32.445Z,11.30
2019-05-07T17:52:03.255Z,11.20
2019-05-07T17:54:32.666Z,11.10
2019-05-07T17:57:02.175Z,11.00
2019-05-07T17:59:32.103Z,11.00
2019-05-07T18:02:19.414Z,10.80
2019-05-07T18:04:54.002Z,10.80
2019-05-07T18:07:20.105Z,10.60
2019-05-07T18:09:49.545Z,10.60
2019-05-07T18:12:18.828Z,10.50
2019-05-07T18:14:48.212Z,10.40
2019-05-07T18:17:39.335Z,10.30
2019-05-07T18:20:08.873Z,10.20
2019-05-07T18:22:38.246Z,10.20
2019-05-07T18:25:07.602Z,10.10
2019-05-07T18:27:37.005Z,10.10
2019-05-07T18:30:07.507Z,10.00
2019-05-07T18:32:44.007Z,9.90
2019-05-07T18:35:13.821Z,9.80
2019-05-07T18:37:52.783Z,9.60
2019-05-07T18:40:22.803Z,9.50
2019-05-07T18:42:52.540Z,9.50
2019-05-07T18:45:22.313Z,9.40
2019-05-07T18:47:51.827Z,9.30
2019-05-07T18:50:22.562Z,9.30
2019-05-07T18:52:52.498Z,9.20
2019-05-07T18:55:24.535Z,9.10
2019-05-07T18:57:53.914Z,9.10
2019-05-07T19:00:31.651Z,9.10
2019-05-07T19:03:03.109Z,9.00
2019-05-07T19:05:32.003Z,9.00
2019-05-07T19:08:07.828Z,8.90
2019-05-07T19:10:32.937Z,8.90
2019-05-07T19:13:02.475Z,8.90
2019-05-07T19:15:32.860Z,8.80
2019-05-07T19:18:02.783Z,8.80
2019-05-07T19:20:32.785Z,8.80
2019-05-07T19:23:02.795Z,8.70
2019-05-07T19:25:32.798Z,8.70
2019-05-07T19:28:02.230Z,8.70
2019-05-07T19:30:32.645Z,8.70
2019-05-07T19:33:02.158Z,8.60
2019-05-07T19:35:32.717Z,8.60
2019-05-07T19:38:02.935Z,8.50
2019-05-07T19:40:32.646Z,8.50
2019-05-07T19:43:03.119Z,8.50
2019-05-07T19:45:32.534Z,8.50
2019-05-07T19:48:02.995Z,8.50
2019-05-07T19:50:32.500Z,8.50
2019-05-07T19:53:03.447Z,8.50
2019-05-07T19:55:52.525Z,8.50
2019-05-07T19:58:22.970Z,8.50
2019-05-07T20:00:57.112Z,8.50
2019-05-07T20:03:24.225Z,8.50
2019-05-07T20:05:53.657Z,8.50
2019-05-07T20:08:23.213Z,8.50
2019-05-07T20:10:58.146Z,8.50
2019-05-07T20:13:27.487Z,8.50
2019-05-07T20:16:07.138Z,8.60
2019-05-07T20:18:36.449Z,8.60
2019-05-07T20:21:06.177Z,8.60
2019-05-07T20:23:35.586Z,8.60
2019-05-07T20:26:04.962Z,8.60
2019-05-07T20:28:34.302Z,8.60
2019-05-07T20:31:03.677Z,8.60
2019-05-07T20:33:33.173Z,8.60
2019-05-07T20:36:03.315Z,8.60
2019-05-07T20:38:32.612Z,8.60
2019-05-07T20:41:02.670Z,8.60
2019-05-07T20:43:32.759Z,8.60
2019-05-07T20:46:03.555Z,8.60
2019-05-07T20:48:32.942Z,8.60
2019-05-07T20:51:02.927Z,8.60
2019-05-07T20:53:52.120Z,8.60
2019-05-07T20:56:23.920Z,8.60
2019-05-07T20:58:53.273Z,8.60
2019-05-07T21:01:22.685Z,8.60
2019-05-07T21:03:52.709Z,8.60
2019-05-07T21:06:22.661Z,8.60
2019-05-07T21:08:52.739Z,8.60
2019-05-07T21:11:22.694Z,8.60
2019-05-07T21:13:52.493Z,8.60
2019-05-07T21:16:22.277Z,8.60
2019-05-07T21:18:52.803Z,8.60
2019-05-07T21:21:22.397Z,8.60
2019-05-07T21:23:56.338Z,8.60
2019-05-07T21:26:25.694Z,8.60
2019-05-07T21:28:55.057Z,8.60
2019-05-07T21:31:24.493Z,8.60
2019-05-07T21:33:53.826Z,8.60
2019-05-07T21:36:23.230Z,8.60
2019-05-07T21:38:52.645Z,8.50
2019-05-07T21:41:22.637Z,8.50
2019-05-07T21:43:52.901Z,8.50
2019-05-07T21:46:22.461Z,8.40
2019-05-07T21:48:53.750Z,8.40
2019-05-07T21:51:23.067Z,8.40
2019-05-07T21:54:14.640Z,8.40
2019-05-07T21:57:02.130Z,8.30
2019-05-07T21:59:35.514Z,8.30
2019-05-07T22:02:12.510Z,8.30
2019-05-07T22:04:42.134Z,8.20
2019-05-07T22:07:12.235Z,8.20
2019-05-07T22:09:41.637Z,8.20
2019-05-07T22:12:12.084Z,8.10
2019-05-07T22:14:41.777Z,8.10
2019-05-07T22:17:12.748Z,8.10
2019-05-07T22:19:42.747Z,8.10
2019-05-07T22:22:12.742Z,8.00
2019-05-07T22:24:42.667Z,8.00
2019-05-07T22:27:12.857Z,8.00
2019-05-07T22:29:42.604Z,7.90
2019-05-07T22:32:44.674Z,7.90
2019-05-07T22:35:17.750Z,7.90
2019-05-07T22:37:47.136Z,7.80
2019-05-07T22:40:16.554Z,7.80
2019-05-07T22:42:45.907Z,7.70
2019-05-07T22:45:15.347Z,7.70
2019-05-07T22:47:44.668Z,7.60
2019-05-07T22:50:14.119Z,7.60
2019-05-07T22:52:43.554Z,7.50
2019-05-07T22:55:14.205Z,7.50
2019-05-07T22:58:02.958Z,7.50
2019-05-07T23:00:39.226Z,7.40
2019-05-07T23:03:08.589Z,7.40
2019-05-07T23:05:38.027Z,7.30
2019-05-07T23:08:07.513Z,7.20
2019-05-07T23:10:36.846Z,7.20
2019-05-07T23:13:06.297Z,7.10
2019-05-07T23:15:36.184Z,7.10
2019-05-07T23:18:05.582Z,7.00
2019-05-07T23:20:34.931Z,7.00
2019-05-07T23:23:04.273Z,6.90
2019-05-07T23:25:33.607Z,6.90
2019-05-07T23:28:05.322Z,6.80
2019-05-07T23:30:34.517Z,6.80
2019-05-07T23:33:03.967Z,6.80
2019-05-07T23:35:33.371Z,6.80
2019-05-07T23:38:02.820Z,6.80
2019-05-07T23:40:43.509Z,6.80
2019-05-07T23:43:13.481Z,6.80
2019-05-07T23:45:42.923Z,6.80
2019-05-07T23:48:12.457Z,6.80
2019-05-07T23:50:41.951Z,6.80
2019-05-07T23:53:12.911Z,6.80
2019-05-07T23:55:42.591Z,6.80
2019-05-07T23:58:13.992Z,6.90
